createdAt,value
2018-07-26T00:00:25.071Z,98166.86
2018-07-26T00:02:53.547Z,98167.50
2018-07-26T00:05:21.977Z,98164.45
2018-07-26T00:07:50.453Z,98165.16
2018-07-26T00:10:18.928Z,98165.80
2018-07-26T00:12:47.499Z,98164.50
2018-07-26T00:15:18.937Z,98158.98
2018-07-26T00:17:47.346Z,98149.59
2018-07-26T00:20:15.800Z,98153.91
2018-07-26T00:22:44.252Z,98155.03
2018-07-26T00:25:12.688Z,98151.35
2018-07-26T00:27:41.185Z,98153.56
2018-07-26T00:30:09.635Z,98140.09
2018-07-26T00:32:38.118Z,98146.90
2018-07-26T00:35:06.584Z,98144.93
2018-07-26T00:37:35.014Z,98146.58
2018-07-26T00:40:03.570Z,98141.19
2018-07-26T00:42:32.034Z,98142.70
2018-07-26T00:45:00.503Z,98138.06
2018-07-26T00:47:29.007Z,98140.70
2018-07-26T00:49:57.684Z,98144.90
2018-07-26T00:52:26.126Z,98145.56
2018-07-26T00:54:54.547Z,98157.84
2018-07-26T00:57:23.043Z,98164.47
2018-07-26T00:59:51.665Z,98155.98
2018-07-26T01:02:20.352Z,98152.72
2018-07-26T01:04:48.850Z,98145.89
2018-07-26T01:07:17.448Z,98145.86
2018-07-26T01:09:46.092Z,98152.66
2018-07-26T01:12:14.543Z,98163.45
2018-07-26T01:14:42.976Z,98165.72
2018-07-26T01:17:11.861Z,98162.25
2018-07-26T01:19:40.315Z,98165.68
2018-07-26T01:22:08.807Z,98162.18
2018-07-26T01:24:37.214Z,98159.06
2018-07-26T01:27:05.870Z,98166.34
2018-07-26T01:29:34.344Z,98160.98
2018-07-26T01:32:02.796Z,98162.76
2018-07-26T01:34:31.310Z,98162.45
2018-07-26T01:36:59.765Z,98161.65
2018-07-26T01:39:28.231Z,98155.34
2018-07-26T01:41:56.686Z,98157.65
2018-07-26T01:44:26.182Z,98161.52
2018-07-26T01:46:54.618Z,98166.96
2018-07-26T01:49:23.079Z,98170.60
2018-07-26T01:51:51.485Z,98160.32
2018-07-26T01:54:19.890Z,98162.05
2018-07-26T01:56:49.227Z,98161.56
2018-07-26T01:59:17.655Z,98159.43
2018-07-26T02:01:46.285Z,98162.53
2018-07-26T02:04:14.693Z,98160.14
2018-07-26T02:06:43.205Z,98163.16
2018-07-26T02:09:12.134Z,98161.29
2018-07-26T02:11:40.824Z,98147.19
2018-07-26T02:14:14.596Z,98151.44
2018-07-26T02:16:43.027Z,98148.53
2018-07-26T02:19:11.508Z,98151.77
2018-07-26T02:21:39.962Z,98147.56
2018-07-26T02:24:08.412Z,98150.03
2018-07-26T02:26:36.918Z,98152.27
2018-07-26T02:29:05.752Z,98151.88
2018-07-26T02:31:34.204Z,98150.03
2018-07-26T02:34:02.714Z,98153.94
2018-07-26T02:36:31.266Z,98155.92
2018-07-26T02:38:59.739Z,98153.48
2018-07-26T02:41:28.381Z,98158.36
2018-07-26T02:43:56.901Z,98150.63
2018-07-26T02:46:25.347Z,98150.38
2018-07-26T02:48:53.785Z,98147.02
2018-07-26T02:51:22.455Z,98147.64
2018-07-26T02:53:50.895Z,98154.30
2018-07-26T02:56:19.396Z,98150.66
2018-07-26T02:58:47.853Z,98155.31
2018-07-26T03:01:16.299Z,98158.51
2018-07-26T03:03:44.796Z,98153.16
2018-07-26T03:06:13.239Z,98156.95
2018-07-26T03:08:41.976Z,98146.47
2018-07-26T03:11:10.452Z,98143.88
2018-07-26T03:13:38.915Z,98153.32
2018-07-26T03:16:07.424Z,98152.28
2018-07-26T03:18:35.908Z,98153.14
2018-07-26T03:21:04.815Z,98152.44
2018-07-26T03:23:33.232Z,98153.91
2018-07-26T03:26:02.009Z,98159.42
2018-07-26T03:28:30.436Z,98162.69
2018-07-26T03:30:58.929Z,98161.59
2018-07-26T03:33:27.411Z,98158.02
2018-07-26T03:35:55.832Z,98162.09
2018-07-26T03:38:24.262Z,98162.51
2018-07-26T03:40:52.660Z,98162.89
2018-07-26T03:43:21.143Z,98165.49
2018-07-26T03:45:49.600Z,98164.95
2018-07-26T03:48:18.055Z,98170.77
2018-07-26T03:50:47.352Z,98175.29
2018-07-26T03:53:16.051Z,98179.01
2018-07-26T03:55:45.014Z,98175.02
2018-07-26T03:58:13.452Z,98172.34
2018-07-26T04:00:41.895Z,98174.81
2018-07-26T04:03:10.380Z,98174.93
2018-07-26T04:05:39.290Z,98179.67
2018-07-26T04:08:07.840Z,98175.56
2018-07-26T04:10:36.256Z,98192.73
2018-07-26T04:13:04.820Z,98193.76
2018-07-26T04:15:33.270Z,98192.42
2018-07-26T04:18:05.047Z,98187.98
2018-07-26T04:20:33.883Z,98177.94
2018-07-26T04:23:02.431Z,98186.48
2018-07-26T04:25:31.604Z,98186.14
2018-07-26T04:28:00.255Z,98188.33
2018-07-26T04:30:28.704Z,98185.36
2018-07-26T04:32:57.395Z,98184.85
2018-07-26T04:35:25.853Z,98182.36
2018-07-26T04:37:54.503Z,98187.95
2018-07-26T04:40:22.934Z,98189.13
2018-07-26T04:42:51.444Z,98185.39
2018-07-26T04:45:19.904Z,98189.45
2018-07-26T04:47:48.368Z,98189.19
2018-07-26T04:50:16.823Z,98194.94
2018-07-26T04:52:45.298Z,98200.34
2018-07-26T04:55:13.790Z,98203.84
2018-07-26T04:57:42.215Z,98197.33
2018-07-26T05:00:11.276Z,98203.69
2018-07-26T05:02:39.985Z,98205.33
2018-07-26T05:05:08.491Z,98199.02
2018-07-26T05:07:36.991Z,98209.34
2018-07-26T05:10:05.812Z,98217.50
2018-07-26T05:12:36.801Z,98213.94
2018-07-26T05:15:06.996Z,98221.16
2018-07-26T05:17:35.736Z,98213.53
2018-07-26T05:20:04.387Z,98212.52
2018-07-26T05:22:32.837Z,98217.02
2018-07-26T05:25:01.735Z,98216.73
2018-07-26T05:27:30.570Z,98224.73
2018-07-26T05:29:59.760Z,98217.02
2018-07-26T05:32:28.567Z,98218.73
2018-07-26T05:34:57.028Z,98221.05
2018-07-26T05:37:25.530Z,98212.72
2018-07-26T05:39:53.952Z,98225.92
2018-07-26T05:42:22.396Z,98225.86
2018-07-26T05:44:50.867Z,98230.70
2018-07-26T05:47:19.361Z,98234.36
2018-07-26T05:49:47.807Z,98235.67
2018-07-26T05:52:16.852Z,98201.20
2018-07-26T05:54:45.312Z,98234.51
2018-07-26T05:57:14.048Z,98235.73
2018-07-26T05:59:42.739Z,98239.29
2018-07-26T06:02:12.005Z,98240.97
2018-07-26T06:04:40.738Z,98243.64
2018-07-26T06:07:09.650Z,98239.78
2018-07-26T06:09:38.120Z,98245.25
2018-07-26T06:12:07.079Z,98241.58
2018-07-26T06:14:35.554Z,98245.32
2018-07-26T06:17:04.117Z,98243.11
2018-07-26T06:19:32.542Z,98242.03
2018-07-26T06:22:00.988Z,98251.91
2018-07-26T06:24:29.456Z,98245.21
2018-07-26T06:26:58.101Z,98242.78
2018-07-26T06:29:26.595Z,98247.53
2018-07-26T06:31:55.372Z,98252.34
2018-07-26T06:34:23.805Z,98250.94
2018-07-26T06:36:52.468Z,98253.42
2018-07-26T06:39:20.917Z,98259.48
2018-07-26T06:41:49.383Z,98263.24
2018-07-26T06:44:17.938Z,98264.69
2018-07-26T06:46:46.599Z,98260.83
2018-07-26T06:49:15.088Z,98261.02
2018-07-26T06:51:43.490Z,98264.84
2018-07-26T06:54:11.957Z,98269.03
2018-07-26T06:56:40.371Z,98277.48
2018-07-26T06:59:08.815Z,98274.78
2018-07-26T07:01:38.064Z,98275.00
2018-07-26T07:04:06.485Z,98269.09
2018-07-26T07:06:34.983Z,98268.08
2018-07-26T07:09:04.651Z,98268.11
2018-07-26T07:11:33.099Z,98269.42
2018-07-26T07:14:01.556Z,98270.15
2018-07-26T07:16:30.228Z,98270.22
2018-07-26T07:18:58.896Z,98272.85
2018-07-26T07:21:27.359Z,98266.45
2018-07-26T07:23:55.815Z,98261.91
2018-07-26T07:26:24.361Z,98272.61
2018-07-26T07:28:52.801Z,98261.95
2018-07-26T07:31:22.238Z,98261.08
2018-07-26T07:33:50.736Z,98256.47
2018-07-26T07:36:19.165Z,98263.44
2018-07-26T07:38:47.623Z,98267.09
2018-07-26T07:41:16.054Z,98260.80
2018-07-26T07:43:44.529Z,98264.81
2018-07-26T07:46:12.956Z,98265.51
2018-07-26T07:48:41.390Z,98259.97
2018-07-26T07:51:09.838Z,98259.21
2018-07-26T07:53:38.275Z,98264.02
2018-07-26T07:56:06.980Z,98254.84
2018-07-26T07:58:35.434Z,98257.59
2018-07-26T08:01:03.844Z,98259.55
2018-07-26T08:03:32.292Z,98255.20
2018-07-26T08:06:01.457Z,98258.97
2018-07-26T08:08:30.720Z,98258.04
2018-07-26T08:10:59.142Z,98258.86
2018-07-26T08:13:27.616Z,98267.28
2018-07-26T08:15:56.107Z,98261.25
2018-07-26T08:18:24.564Z,98263.20
2018-07-26T08:20:53.012Z,98262.86
2018-07-26T08:23:21.556Z,98259.56
2018-07-26T08:25:50.011Z,98262.50
2018-07-26T08:28:18.459Z,98253.22
2018-07-26T08:30:46.900Z,98258.08
2018-07-26T08:33:15.344Z,98253.14
2018-07-26T08:35:43.798Z,98257.45
2018-07-26T08:38:12.307Z,98263.20
2018-07-26T08:40:41.055Z,98255.58
2018-07-26T08:43:09.774Z,98256.63
2018-07-26T08:45:38.248Z,98258.86
2018-07-26T08:48:06.940Z,98259.83
2018-07-26T08:50:35.355Z,98252.59
2018-07-26T08:53:03.788Z,98255.22
2018-07-26T08:55:32.263Z,98254.52
2018-07-26T08:58:00.711Z,98251.89
2018-07-26T09:00:29.201Z,98253.98
2018-07-26T09:02:57.635Z,98248.61
2018-07-26T09:05:26.083Z,98246.87
2018-07-26T09:07:54.539Z,98257.91
2018-07-26T09:10:23.035Z,98255.75
2018-07-26T09:12:51.486Z,98249.81
2018-07-26T09:15:20.234Z,98252.08
2018-07-26T09:17:48.685Z,98250.59
2018-07-26T09:20:17.323Z,98251.77
2018-07-26T09:22:45.799Z,98244.42
2018-07-26T09:25:14.273Z,98241.53
2018-07-26T09:27:42.690Z,98240.09
2018-07-26T09:30:11.682Z,98236.94
2018-07-26T09:32:40.163Z,98232.47
2018-07-26T09:35:09.168Z,98235.80
2018-07-26T09:37:37.603Z,98237.17
2018-07-26T09:40:06.060Z,98235.05
2018-07-26T09:42:34.539Z,98230.84
2018-07-26T09:45:03.271Z,98224.95
2018-07-26T09:47:31.965Z,98218.87
2018-07-26T09:50:00.418Z,98215.20
2018-07-26T09:52:28.859Z,98221.03
2018-07-26T09:54:57.337Z,98211.37
2018-07-26T09:57:25.798Z,98220.34
2018-07-26T09:59:54.229Z,98221.66
2018-07-26T10:02:22.735Z,98226.42
2018-07-26T10:04:51.148Z,98216.11
2018-07-26T10:07:19.645Z,98204.34
2018-07-26T10:09:48.307Z,98209.92
2018-07-26T10:12:16.698Z,98210.98
2018-07-26T10:14:45.152Z,98209.25
2018-07-26T10:17:13.612Z,98212.53
2018-07-26T10:19:42.092Z,98207.06
2018-07-26T10:22:10.540Z,98213.00
2018-07-26T10:24:39.036Z,98213.88
2018-07-26T10:27:07.569Z,98205.41
2018-07-26T10:29:36.011Z,98213.23
2018-07-26T10:32:04.478Z,98209.08
2018-07-26T10:34:32.936Z,98210.70
2018-07-26T10:37:01.607Z,98210.22
2018-07-26T10:39:30.091Z,98211.17
2018-07-26T10:41:58.532Z,98209.84
2018-07-26T10:44:27.526Z,98200.57
2018-07-26T10:46:55.932Z,98195.80
2018-07-26T10:49:24.396Z,98195.72
2018-07-26T10:51:52.876Z,98196.52
2018-07-26T10:54:21.309Z,98194.39
2018-07-26T10:56:49.726Z,98188.97
2018-07-26T10:59:18.175Z,98189.36
2018-07-26T11:01:46.994Z,98178.02
2018-07-26T11:04:15.447Z,98172.48
2018-07-26T11:06:43.865Z,98172.87
2018-07-26T11:09:12.307Z,98169.25
2018-07-26T11:11:40.763Z,98164.66
2018-07-26T11:14:09.564Z,98154.29
2018-07-26T11:16:38.300Z,98148.55
2018-07-26T11:19:06.726Z,98165.47
2018-07-26T11:21:35.187Z,98163.55
2018-07-26T11:24:03.627Z,98165.70
2018-07-26T11:26:32.131Z,98151.08
2018-07-26T11:29:01.001Z,98146.58
2018-07-26T11:31:29.441Z,98146.57
2018-07-26T11:33:57.869Z,98141.70
2018-07-26T11:36:26.331Z,98144.88
2018-07-26T11:38:54.778Z,98144.77
2018-07-26T11:41:23.248Z,98142.18
2018-07-26T11:43:51.680Z,98140.22
2018-07-26T11:46:20.134Z,98138.39
2018-07-26T11:48:48.571Z,98137.00
2018-07-26T11:51:17.003Z,98135.61
2018-07-26T11:53:45.579Z,98130.80
2018-07-26T11:56:13.990Z,98125.25
2018-07-26T11:58:42.462Z,98112.73
2018-07-26T12:01:10.925Z,98117.64
2018-07-26T12:03:39.368Z,98117.73
2018-07-26T12:06:07.892Z,98124.38
2018-07-26T12:08:36.355Z,98127.97
2018-07-26T12:11:04.801Z,98128.95
2018-07-26T12:13:33.247Z,98124.05
2018-07-26T12:16:01.703Z,98136.38
2018-07-26T12:18:30.163Z,98139.50
2018-07-26T12:20:58.569Z,98136.11
2018-07-26T12:23:27.077Z,98137.38
2018-07-26T12:25:55.560Z,98132.31
2018-07-26T12:28:23.976Z,98141.92
2018-07-26T12:30:52.454Z,98164.66
2018-07-26T12:33:20.894Z,98173.88
2018-07-26T12:35:49.333Z,98174.31
2018-07-26T12:38:17.810Z,98175.50
2018-07-26T12:40:46.262Z,98182.06
2018-07-26T12:43:14.724Z,98192.95
2018-07-26T12:45:43.159Z,98193.36
2018-07-26T12:48:11.832Z,98204.44
2018-07-26T12:50:40.503Z,98197.37
2018-07-26T12:53:09.020Z,98194.84
2018-07-26T12:55:37.436Z,98198.17
2018-07-26T12:58:05.911Z,98186.77
2018-07-26T13:00:34.723Z,98187.84
2018-07-26T13:03:03.176Z,98184.74
2018-07-26T13:05:31.832Z,98172.82
2018-07-26T13:08:00.253Z,98179.87
2018-07-26T13:10:28.775Z,98168.05
2018-07-26T13:12:57.228Z,98168.83
2018-07-26T13:15:25.652Z,98158.75
2018-07-26T13:17:55.009Z,98157.02
2018-07-26T13:20:23.743Z,98155.13
2018-07-26T13:22:52.551Z,98150.59
2018-07-26T13:25:20.953Z,98144.22
2018-07-26T13:27:49.403Z,98130.89
2018-07-26T13:30:17.824Z,98132.52
2018-07-26T13:32:46.274Z,98138.70
2018-07-26T13:35:14.703Z,98141.14
2018-07-26T13:37:43.194Z,98134.36
2018-07-26T13:40:11.733Z,98135.23
2018-07-26T13:42:40.182Z,98140.41
2018-07-26T13:45:09.452Z,98136.23
2018-07-26T13:47:38.426Z,98098.45
2018-07-26T13:50:07.346Z,98130.27
2018-07-26T13:52:35.817Z,98125.92
2018-07-26T13:55:04.547Z,98126.06
2018-07-26T13:57:33.270Z,98126.91
2018-07-26T14:00:01.692Z,98132.28
2018-07-26T14:02:30.341Z,98134.37
2018-07-26T14:04:58.785Z,98128.30
2018-07-26T14:07:27.199Z,98133.09
2018-07-26T14:09:55.684Z,98127.89
2018-07-26T14:12:24.115Z,98124.94
2018-07-26T14:14:52.849Z,98121.28
2018-07-26T14:17:21.391Z,98122.80
2018-07-26T14:19:49.871Z,98120.98
2018-07-26T14:22:18.376Z,98118.02
2018-07-26T14:24:46.751Z,98115.30
2018-07-26T14:27:15.272Z,98109.80
2018-07-26T14:29:43.688Z,98112.70
2018-07-26T14:32:12.161Z,98110.20
2018-07-26T14:34:40.558Z,98111.37
2018-07-26T14:37:09.036Z,98119.47
2018-07-26T14:39:37.458Z,98123.98
2018-07-26T14:42:05.938Z,98122.68
2018-07-26T14:44:34.417Z,98130.76
2018-07-26T14:47:02.858Z,98132.99
2018-07-26T14:49:31.260Z,98125.59
2018-07-26T14:51:59.671Z,98125.78
2018-07-26T14:54:28.113Z,98134.33
2018-07-26T14:56:56.581Z,98134.03
2018-07-26T14:59:25.250Z,98134.05
2018-07-26T15:01:54.032Z,98128.02
2018-07-26T15:04:22.477Z,98145.73
2018-07-26T15:06:50.931Z,98143.84
2018-07-26T15:09:19.402Z,98139.38
2018-07-26T15:11:48.348Z,98138.86
2018-07-26T15:14:17.345Z,98136.61
2018-07-26T15:16:47.272Z,98127.03
2018-07-26T15:19:15.681Z,98124.14
2018-07-26T15:21:44.111Z,98131.44
2018-07-26T15:24:12.566Z,98125.41
2018-07-26T15:26:41.002Z,98118.91
2018-07-26T15:29:09.451Z,98118.25
2018-07-26T15:31:38.040Z,98119.16
2018-07-26T15:34:06.532Z,98110.86
2018-07-26T15:36:35.008Z,98110.84
2018-07-26T15:39:03.995Z,98102.08
2018-07-26T15:42:35.287Z,98099.37
2018-07-26T15:45:04.089Z,98097.67
2018-07-26T15:47:32.714Z,98098.38
2018-07-26T15:50:01.169Z,98098.02
2018-07-26T15:52:29.644Z,98091.39
2018-07-26T15:54:58.080Z,98090.57
2018-07-26T15:57:26.565Z,98078.36
2018-07-26T15:59:55.016Z,98085.25
2018-07-26T16:02:23.470Z,98080.13
2018-07-26T16:04:52.005Z,98082.18
2018-07-26T16:07:20.634Z,98086.94
2018-07-26T16:09:49.323Z,98084.68
2018-07-26T16:12:17.826Z,98089.01
2018-07-26T16:14:46.213Z,98087.64
2018-07-26T16:17:14.695Z,98083.22
2018-07-26T16:19:43.366Z,98083.30
2018-07-26T16:22:12.075Z,98076.38
2018-07-26T16:24:41.229Z,98078.67
2018-07-26T16:27:09.712Z,98083.39
2018-07-26T16:29:38.179Z,98086.44
2018-07-26T16:32:07.071Z,98086.38
2018-07-26T16:34:35.605Z,98094.66
2018-07-26T16:37:04.088Z,98093.15
2018-07-26T16:39:32.555Z,98091.92
2018-07-26T16:42:01.264Z,98092.34
2018-07-26T16:44:29.754Z,98099.14
2018-07-26T16:46:58.484Z,98102.95
2018-07-26T16:49:26.939Z,98101.12
2018-07-26T16:51:55.522Z,98105.92
2018-07-26T16:54:23.963Z,98101.58
2018-07-26T16:56:52.456Z,98103.98
2018-07-26T16:59:21.004Z,98100.45
2018-07-26T17:01:49.759Z,98088.84
2018-07-26T17:04:18.412Z,98091.47
2018-07-26T17:06:47.345Z,98092.12
2018-07-26T17:09:15.792Z,98101.20
2018-07-26T17:11:44.252Z,98096.66
2018-07-26T17:14:12.684Z,98101.88
2018-07-26T17:16:41.416Z,98102.16
2018-07-26T17:19:09.928Z,98104.03
2018-07-26T17:21:38.372Z,98105.88
2018-07-26T17:24:07.209Z,98103.83
2018-07-26T17:26:40.936Z,98102.44
2018-07-26T17:29:09.434Z,98106.54
2018-07-26T17:31:37.894Z,98109.28
2018-07-26T17:34:21.310Z,98111.37
2018-07-26T17:36:49.831Z,98116.92
2018-07-26T17:39:18.458Z,98115.34
2018-07-26T17:41:46.947Z,98113.08
2018-07-26T17:44:15.455Z,98105.34
2018-07-26T17:46:44.266Z,98118.32
2018-07-26T17:49:12.922Z,98112.01
2018-07-26T17:51:41.347Z,98117.86
2018-07-26T17:54:09.769Z,98123.02
2018-07-26T17:56:38.386Z,98123.16
2018-07-26T17:59:07.205Z,98128.92
2018-07-26T18:01:36.657Z,98133.86
2018-07-26T18:04:05.141Z,98136.47
2018-07-26T18:06:34.447Z,98132.54
2018-07-26T18:09:03.099Z,98139.05
2018-07-26T18:11:31.723Z,98136.66
2018-07-26T18:14:00.432Z,98133.17
2018-07-26T18:16:29.816Z,98137.71
2018-07-26T18:18:58.403Z,98144.92
2018-07-26T18:21:26.892Z,98144.56
2018-07-26T18:23:55.916Z,98137.00
2018-07-26T18:26:24.391Z,98138.55
2018-07-26T18:28:52.854Z,98139.08
2018-07-26T18:31:21.374Z,98142.48
2018-07-26T18:33:55.986Z,98149.95
2018-07-26T18:36:24.679Z,98150.90
2018-07-26T18:38:53.184Z,98155.45
2018-07-26T18:41:21.626Z,98159.91
2018-07-26T18:43:50.231Z,98161.97
2018-07-26T18:46:18.709Z,98171.77
2018-07-26T18:48:47.174Z,98173.37
2018-07-26T18:51:15.608Z,98173.86
2018-07-26T18:53:44.077Z,98180.47
2018-07-26T18:56:12.552Z,98177.27
2018-07-26T18:58:41.271Z,98178.78
2018-07-26T19:01:09.745Z,98177.23
2018-07-26T19:03:38.159Z,98168.50
2018-07-26T19:06:06.743Z,98183.67
2018-07-26T19:08:35.292Z,98182.46
2018-07-26T19:11:03.747Z,98181.77
2018-07-26T19:13:32.289Z,98182.19
2018-07-26T19:16:00.786Z,98180.02
2018-07-26T19:18:29.234Z,98183.34
2018-07-26T19:20:57.914Z,98176.17
2018-07-26T19:23:26.351Z,98177.17
2018-07-26T19:25:55.151Z,98179.94
2018-07-26T19:28:23.642Z,98182.08
2018-07-26T19:30:52.147Z,98190.03
2018-07-26T19:33:20.642Z,98190.14
2018-07-26T19:35:49.898Z,98189.18
2018-07-26T19:38:18.511Z,98188.11
2018-07-26T19:40:46.936Z,98193.00
2018-07-26T19:43:15.481Z,98190.19
2018-07-26T19:45:43.947Z,98200.11
2018-07-26T19:48:12.371Z,98196.20
2018-07-26T19:50:40.882Z,98194.37
2018-07-26T19:53:09.492Z,98201.59
2018-07-26T19:55:37.923Z,98199.90
2018-07-26T19:58:06.434Z,98189.48
2018-07-26T20:00:34.911Z,98187.98
2018-07-26T20:03:03.334Z,98186.46
2018-07-26T20:05:31.778Z,98194.78
2018-07-26T20:08:00.167Z,98190.44
2018-07-26T20:10:28.608Z,98192.14
2018-07-26T20:12:57.112Z,98191.62
2018-07-26T20:15:25.552Z,98196.82
2018-07-26T20:17:54.038Z,98200.49
2018-07-26T20:20:22.471Z,98198.33
2018-07-26T20:22:50.881Z,98197.86
2018-07-26T20:25:19.353Z,98200.00
2018-07-26T20:27:48.213Z,98202.80
2018-07-26T20:30:16.823Z,98155.08
2018-07-26T20:32:45.440Z,98207.82
2018-07-26T20:35:13.967Z,98200.34
2018-07-26T20:37:42.528Z,98189.98
2018-07-26T20:40:11.695Z,98177.03
2018-07-26T20:42:40.478Z,98182.76
2018-07-26T20:45:10.794Z,98183.58
2018-07-26T20:47:39.465Z,98184.91
2018-07-26T20:50:08.999Z,98187.17
2018-07-26T20:52:38.036Z,98185.25
2018-07-26T20:55:06.843Z,98178.02
2018-07-26T20:57:35.539Z,98184.73
2018-07-26T21:00:04.742Z,98194.85
2018-07-26T21:02:33.421Z,98196.19
2018-07-26T21:05:01.848Z,98193.04
2018-07-26T21:07:30.296Z,98204.79
2018-07-26T21:09:58.719Z,98204.25
2018-07-26T21:12:27.228Z,98199.30
2018-07-26T21:14:55.990Z,98201.94
2018-07-26T21:17:24.488Z,98197.64
2018-07-26T21:19:52.913Z,98191.78
2018-07-26T21:22:21.316Z,98192.75
2018-07-26T21:24:49.931Z,98189.48
2018-07-26T21:27:18.468Z,98190.99
2018-07-26T21:29:46.963Z,98192.55
2018-07-26T21:32:15.356Z,98195.44
2018-07-26T21:34:43.815Z,98193.34
2018-07-26T21:37:12.257Z,98195.14
2018-07-26T21:39:40.657Z,98191.14
2018-07-26T21:42:09.173Z,98196.27
2018-07-26T21:44:38.073Z,98195.27
2018-07-26T21:47:06.528Z,98200.55
2018-07-26T21:49:34.980Z,98204.78
2018-07-26T21:52:03.440Z,98202.73
2018-07-26T21:54:31.925Z,98201.09
2018-07-26T21:57:00.810Z,98201.63
2018-07-26T21:59:29.450Z,98193.64
2018-07-26T22:01:57.906Z,98190.97
2018-07-26T22:04:26.419Z,98190.22
2018-07-26T22:06:55.136Z,98188.75
2018-07-26T22:09:23.698Z,98188.70
2018-07-26T22:11:52.134Z,98188.42
2018-07-26T22:14:20.608Z,98184.12
2018-07-26T22:16:49.078Z,98192.54
2018-07-26T22:19:17.599Z,98187.28
2018-07-26T22:21:46.299Z,98186.23
2018-07-26T22:24:14.732Z,98181.84
2018-07-26T22:26:43.447Z,98178.16
2018-07-26T22:29:11.953Z,98185.78
2018-07-26T22:31:40.404Z,98187.76
2018-07-26T22:34:09.271Z,98187.69
2018-07-26T22:36:37.731Z,98183.31
2018-07-26T22:39:07.922Z,98180.44
2018-07-26T22:41:36.320Z,98184.25
2018-07-26T22:44:05.032Z,98178.45
2018-07-26T22:46:33.740Z,98177.33
2018-07-26T22:49:02.180Z,98169.59
2018-07-26T22:51:30.703Z,98171.52
2018-07-26T22:53:59.167Z,98178.49
2018-07-26T22:56:27.636Z,98178.14
2018-07-26T22:58:56.135Z,98175.39
2018-07-26T23:01:24.716Z,98166.30
2018-07-26T23:03:53.393Z,98173.01
2018-07-26T23:06:21.851Z,98167.71
2018-07-26T23:08:50.271Z,98163.21
2018-07-26T23:11:18.778Z,98156.86
2018-07-26T23:13:47.216Z,98166.89
2018-07-26T23:16:15.689Z,98163.06
2018-07-26T23:18:44.536Z,98163.66
2018-07-26T23:21:13.003Z,98171.56
2018-07-26T23:23:41.603Z,98162.13
2018-07-26T23:26:10.143Z,98163.34
2018-07-26T23:28:38.887Z,98159.08
2018-07-26T23:31:07.483Z,98158.03
2018-07-26T23:33:35.949Z,98161.29
2018-07-26T23:36:04.459Z,98161.89
2018-07-26T23:38:32.959Z,98156.20
2018-07-26T23:41:01.412Z,98154.23
2018-07-26T23:43:29.892Z,98148.83
2018-07-26T23:45:58.363Z,98148.14
2018-07-26T23:48:26.837Z,98146.89
2018-07-26T23:50:55.684Z,98147.95
2018-07-26T23:53:24.187Z,98143.16
2018-07-26T23:55:52.768Z,98146.05
2018-07-26T23:58:21.248Z,98150.48
